Pagrindinis puslapis
METAR-TAF:

METAR-TAF

Oro uostai :

Chargas, Iranas

platuma: 29-15-34N, ilguma: 50-19-24E, Aukštis: 5 m

Dabartinis oras

Ataskaita buvo paskelbta 22 minutes, ne 05:00 UTC
Vėjas 4 kt iš Rytų/Šiaurės Rytų
Temperatūra 28°C
Drėgmė 66%
Slėgis 1016 hPa
Matomumas 10 km arba daugiau
nėra debesų žemiau 1500 m ir nėra kamuolinių lietaus debesų

METAR: OIBQ 290500Z 06004KT CAVOK 28/21 Q1016

Laikas: 08:52 (05:22 UTC)


TAF: trūkstamas

Orai ataskaitas ir orų prognozės (METAR, TAF).

turimą stotys yra geltonos ir raudonos taškus žemėlapyje.

Perkelti pele per norėdami pamatyti stoties vardą.

Tada spustelėkite, norėdami matyti oro stebėjimo ir prognozės.

Norėdami pakeisti žemėlapį: spustelėkite ant žalios mygtukų su juodo kryžiaus žemyn,; žalią mygtuką su brūkšneliu, jei norite nutolinti; arba žalių rodyklių gretimoms žemėlapius.


METAR-TAF: